Time;durP1;ratioP1;P1;durP2;ratioP2;P2;SDS_P1;SDS_P2;PMS_P1;PMS_P2;Temp;Humidity;BMP_temperature;BMP_pressure;BME280_temperature;BME280_humidity;BME280_pressure;Samples;Min_cycle;Max_cycle;Signal;HPM_P1;HPM_P2
2023/09/16 06:41:37;;;;;;;;;;;;;;;17.87;82.08;101004.55;107528;1275;22500;-43
2023/09/16 06:44:11;;;;;;;;;;;;;;;17.94;81.78;101007.05;108088;1276;22536;-47
2023/09/16 06:46:40;;;;;;;;;;;;;;;18.02;81.07;101006.38;107215;1266;22508;-48
2023/09/16 06:49:07;;;;;;;;;;;;;;;18.11;80.61;101007.25;107141;1270;22524;-41
2023/09/16 06:51:34;;;;;;;;;;;;;;;18.16;79.77;101007.33;107435;1266;25556;-42
2023/09/16 06:54:01;;;;;;;;;;;;;;;18.21;79.29;101009.88;107096;1266;24295;-48
2023/09/16 06:56:29;;;;;;;;;;;;;;;18.29;78.70;101009.01;107342;1266;25603;-42
2023/09/16 06:58:56;;;;;;;;;;;;;;;18.34;77.15;101013.33;107409;1264;25226;-49
2023/09/16 07:01:23;;;;;;;;;;;;;;;18.39;77.61;101013.74;107303;1265;22522;-43
2023/09/16 07:03:50;;;;;;;;;;;;;;;18.50;77.25;101015.63;107433;1263;22504;-44
2023/09/16 07:06:17;;;;;;;;;;;;;;;18.58;76.07;101016.52;107035;1276;25318;-47
2023/09/16 07:08:44;;;;;;;;;;;;;;;18.67;75.92;101017.93;107629;1266;25280;-42
2023/09/16 07:11:13;;;;;;;;;;;;;;;18.80;74.85;101016.60;107408;1266;22460;-49
2023/09/16 07:13:40;;;;;;;;;;;;;;;18.92;73.97;101019.17;108129;1263;22508;-43
2023/09/16 07:16:07;;;;;;;;;;;;;;;18.98;73.34;101016.19;107370;1269;25320;-43
2023/09/16 07:18:35;;;;;;;;;;;;;;;19.06;72.97;101014.41;107031;1271;24228;-49
2023/09/16 07:21:01;;;;;;;;;;;;;;;19.18;72.29;101016.42;107050;1266;22620;-49
2023/09/16 07:23:28;;;;;;;;;;;;;;;19.27;71.77;101016.21;107289;1266;25466;-42
2023/09/16 07:25:56;;;;;;;;;;;;;;;19.28;71.02;101018.66;108700;1266;25318;-44
2023/09/16 07:28:27;;;;;;;;;;;;;;;19.32;71.18;101022.08;109528;1266;22481;-43
2023/09/16 07:30:53;;;;;;;;;;;;;;;19.45;70.61;101023.55;108625;1267;22530;-50
2023/09/16 07:33:20;;;;;;;;;;;;;;;19.54;68.78;101019.23;107553;1263;22761;-50
2023/09/16 07:35:48;;;;;;;;;;;;;;;19.58;67.36;101018.44;107250;1267;24229;-42
2023/09/16 07:38:15;;;;;;;;;;;;;;;19.67;67.52;101018.92;107316;1272;22509;-43
2023/09/16 07:40:42;;;;;;;;;;;;;;;19.78;67.03;101019.89;107152;1272;22608;-43
2023/09/16 07:43:11;;;;;;;;;;;;;;;19.77;66.76;101017.79;107253;1266;25827;-49
2023/09/16 07:45:38;;;;;;;;;;;;;;;19.77;67.07;101017.27;107445;1275;22504;-42
2023/09/16 07:48:07;;;;;;;;;;;;;;;19.83;66.94;101019.58;107524;1270;22507;-42
2023/09/16 07:50:34;;;;;;;;;;;;;;;19.92;66.72;101018.80;107420;1266;25336;-43
2023/09/16 07:53:00;;;;;;;;;;;;;;;20.02;66.40;101020.12;107214;1263;22502;-48
2023/09/16 07:55:27;;;;;;;;;;;;;;;20.09;65.54;101019.91;107429;1263;24219;-44
2023/09/16 07:57:54;;;;;;;;;;;;;;;20.15;64.87;101017.27;107397;1266;25486;-42
2023/09/16 08:00:21;;;;;;;;;;;;;;;20.25;64.02;101016.65;108094;1267;24193;-42
2023/09/16 08:02:47;;;;;;;;;;;;;;;20.38;61.94;101019.10;107574;1266;22504;-50
2023/09/16 08:05:15;;;;;;;;;;;;;;;20.49;58.91;101018.09;107427;1263;22529;-48
2023/09/16 08:07:41;;;;;;;;;;;;;;;20.57;57.53;101021.05;107738;1267;22603;-49
2023/09/16 08:10:08;;;;;;;;;;;;;;;20.63;56.50;101015.20;107879;1271;23320;-48
2023/09/16 08:12:35;;;;;;;;;;;;;;;20.71;56.21;101019.21;107487;1275;24336;-50
2023/09/16 08:15:03;;;;;;;;;;;;;;;20.79;55.03;101022.50;107446;1266;22630;-49
2023/09/16 08:17:30;;;;;;;;;;;;;;;20.87;54.60;101022.09;107628;1267;23332;-49
2023/09/16 08:19:56;;;;;;;;;;;;;;;20.93;54.43;101019.77;107374;1276;22505;-49
2023/09/16 08:22:23;;;;;;;;;;;;;;;21.02;54.85;101022.86;107292;1270;22508;-42
2023/09/16 08:24:50;;;;;;;;;;;;;;;21.13;54.24;101015.59;107516;1276;24169;-42
2023/09/16 08:27:19;;;;;;;;;;;;;;;21.25;53.70;101015.02;107667;1275;22552;-44
2023/09/16 08:29:46;;;;;;;;;;;;;;;21.34;53.15;101015.66;107276;1266;25239;-48
2023/09/16 08:32:12;;;;;;;;;;;;;;;21.36;52.84;101015.56;107365;1266;22511;-49
2023/09/16 08:34:39;;;;;;;;;;;;;;;21.42;52.51;101019.46;107426;1273;25227;-42
2023/09/16 08:37:05;;;;;;;;;;;;;;;21.47;52.39;101013.95;107248;1266;24266;-42
2023/09/16 08:39:35;;;;;;;;;;;;;;;21.55;51.81;101011.40;107396;1273;22499;-48
2023/09/16 08:42:02;;;;;;;;;;;;;;;21.65;50.40;101014.96;107359;1274;22533;-42
2023/09/16 08:44:29;;;;;;;;;;;;;;;21.71;49.41;101011.73;107464;1275;22504;-47
2023/09/16 08:46:59;;;;;;;;;;;;;;;21.72;49.19;101011.52;107390;1266;22565;-49
2023/09/16 08:49:27;;;;;;;;;;;;;;;21.75;49.03;101009.63;107606;1275;24402;-49
2023/09/16 08:51:54;;;;;;;;;;;;;;;21.80;48.78;101009.43;107845;1273;22971;-42
2023/09/16 08:54:21;;;;;;;;;;;;;;;21.88;48.41;101010.04;107214;1267;25417;-42
2023/09/16 08:56:48;;;;;;;;;;;;;;;21.96;48.07;101005.89;107352;1268;23259;-42
2023/09/16 08:59:15;;;;;;;;;;;;;;;22.00;48.02;101007.15;107422;1267;24298;-48
2023/09/16 09:01:42;;;;;;;;;;;;;;;22.01;47.86;101006.92;107717;1266;24047;-48
2023/09/16 09:04:09;;;;;;;;;;;;;;;22.05;47.72;101006.26;107834;1266;24240;-41
2023/09/16 09:06:36;;;;;;;;;;;;;;;22.11;47.71;101007.48;108038;1259;22843;-41
2023/09/16 09:09:07;;;;;;;;;;;;;;;22.19;47.71;101004.35;107068;1266;22719;-43
2023/09/16 09:11:33;;;;;;;;;;;;;;;22.29;47.59;101011.27;107326;1264;25293;-42
2023/09/16 09:14:00;;;;;;;;;;;;;;;22.35;46.67;101010.51;106831;1268;25340;-43
2023/09/16 09:16:28;;;;;;;;;;;;;;;22.40;46.31;101008.16;107880;1266;22556;-47
2023/09/16 09:18:57;;;;;;;;;;;;;;;22.46;46.35;101011.00;109342;1266;22571;-50
2023/09/16 09:21:24;;;;;;;;;;;;;;;22.43;45.80;101010.53;108051;1275;22508;-58
2023/09/16 09:23:52;;;;;;;;;;;;;;;22.34;45.21;101006.64;108140;1272;22626;-48
2023/09/16 09:26:18;;;;;;;;;;;;;;;22.27;45.23;101006.70;108300;1274;24230;-48
2023/09/16 09:28:46;;;;;;;;;;;;;;;22.29;45.31;101008.23;110044;1273;23186;-48
2023/09/16 09:31:13;;;;;;;;;;;;;;;22.32;45.17;101010.08;109083;1269;22508;-48
2023/09/16 09:33:44;;;;;;;;;;;;;;;22.32;44.47;101013.45;108619;1275;25466;-48
2023/09/16 09:36:12;;;;;;;;;;;;;;;22.36;43.92;101013.48;108327;1265;24294;-50
2023/09/16 09:38:39;;;;;;;;;;;;;;;22.41;43.98;101013.84;109097;1272;24236;-51
2023/09/16 09:41:07;;;;;;;;;;;;;;;22.47;43.62;101016.64;108055;1275;22511;-49
2023/09/16 09:43:34;;;;;;;;;;;;;;;22.53;43.42;101012.98;109778;1270;23261;-48
2023/09/16 09:46:00;;;;;;;;;;;;;;;22.62;43.13;101013.35;109251;1264;22759;-48
2023/09/16 09:48:27;;;;;;;;;;;;;;;22.68;42.43;101014.05;109697;1267;22500;-49
2023/09/16 09:50:54;;;;;;;;;;;;;;;22.72;42.27;101016.55;110229;1269;23341;-48
2023/09/16 09:53:22;;;;;;;;;;;;;;;22.75;41.90;101014.48;110260;1272;23380;-48
2023/09/16 09:55:49;;;;;;;;;;;;;;;22.76;42.15;101008.90;110358;1266;23347;-48
2023/09/16 09:58:16;;;;;;;;;;;;;;;22.78;41.97;101012.58;110257;1276;23081;-48
2023/09/16 10:00:49;;;;;;;;;;;;;;;22.78;41.87;101010.61;109416;1267;22576;-48
2023/09/16 10:03:17;;;;;;;;;;;;;;;22.81;42.19;101013.86;108825;1268;22708;-43
2023/09/16 10:05:43;;;;;;;;;;;;;;;22.88;41.66;101012.03;108731;1266;22526;-48
2023/09/16 10:08:10;;;;;;;;;;;;;;;22.96;41.39;101009.58;110441;1270;22426;-43
2023/09/16 10:10:37;;;;;;;;;;;;;;;23.09;41.43;101009.23;109397;1273;22489;-41
2023/09/16 10:13:04;;;;;;;;;;;;;;;23.21;40.44;101010.52;110035;1266;22571;-42
2023/09/16 10:15:40;;;;;;;;;;;;;;;23.30;40.15;101012.10;110217;1273;23281;-43
2023/09/16 10:18:07;;;;;;;;;;;;;;;23.54;39.86;101013.97;110238;1270;23249;-43
2023/09/16 10:20:36;;;;;;;;;;;;;;;23.83;39.22;101011.66;110208;1272;22490;-43
2023/09/16 10:23:02;;;;;;;;;;;;;;;24.08;38.50;101008.92;109456;1271;22626;-49
2023/09/16 10:25:29;;;;;;;;;;;;;;;24.42;37.93;101002.77;107633;1275;25525;-49
2023/09/16 10:28:02;;;;;;;;;;;;;;;24.85;37.52;101001.98;109459;1261;22495;-49
2023/09/16 10:30:32;;;;;;;;;;;;;;;25.31;36.49;101003.30;108463;1275;23458;-48
2023/09/16 10:33:02;;;;;;;;;;;;;;;25.86;35.71;100999.46;107695;1276;24259;-44
2023/09/16 10:35:30;;;;;;;;;;;;;;;26.38;34.60;100997.04;107782;1266;22493;-54
2023/09/16 10:37:59;;;;;;;;;;;;;;;26.90;33.19;100995.75;107494;1268;24216;-43
2023/09/16 10:40:26;;;;;;;;;;;;;;;27.39;32.48;100996.19;107650;1257;23408;-43
2023/09/16 10:42:53;;;;;;;;;;;;;;;27.91;31.33;100997.37;107704;1276;23369;-47
2023/09/16 10:45:21;;;;;;;;;;;;;;;28.33;30.52;100997.81;107301;1273;26473;-47
2023/09/16 10:47:51;;;;;;;;;;;;;;;28.73;29.87;100999.16;108869;1276;23275;-48
2023/09/16 10:50:18;;;;;;;;;;;;;;;29.15;29.17;100992.12;108368;1270;25376;-50
2023/09/16 10:52:49;;;;;;;;;;;;;;;29.47;28.88;100986.92;109579;1267;22500;-44
2023/09/16 10:55:18;;;;;;;;;;;;;;;29.68;28.25;100982.85;109973;1257;22649;-42
2023/09/16 10:58:06;;;;;;;;;;;;;;;29.93;28.09;100983.41;107759;1266;22649;-48
2023/09/16 11:00:37;;;;;;;;;;;;;;;30.25;27.65;100985.30;107529;1270;25327;-43
2023/09/16 11:03:05;;;;;;;;;;;;;;;30.45;27.02;100989.07;107930;1263;22629;-43
2023/09/16 11:05:33;;;;;;;;;;;;;;;30.50;26.87;100984.79;107727;1257;24157;-41
2023/09/16 11:08:00;;;;;;;;;;;;;;;30.56;26.57;100982.86;107517;1273;25361;-48
2023/09/16 11:10:27;;;;;;;;;;;;;;;30.45;26.42;100981.17;107949;1264;24324;-48
2023/09/16 11:12:53;;;;;;;;;;;;;;;30.20;25.99;100982.24;107489;1274;22532;-48
2023/09/16 11:15:20;;;;;;;;;;;;;;;29.82;26.53;100978.24;107968;1274;22495;-42
2023/09/16 11:17:47;;;;;;;;;;;;;;;29.42;28.05;100981.02;107923;1267;25356;-43
2023/09/16 11:20:30;;;;;;;;;;;;;;;29.03;28.31;100980.75;107492;1264;23877;-50
2023/09/16 11:22:59;;;;;;;;;;;;;;;28.51;29.22;100980.48;107521;1273;22509;-45
2023/09/16 11:25:29;;;;;;;;;;;;;;;28.09;30.37;100981.52;107201;1274;22511;-51
2023/09/16 11:27:56;;;;;;;;;;;;;;;27.85;30.22;100980.86;107155;1274;22515;-51
2023/09/16 11:30:22;;;;;;;;;;;;;;;27.62;30.36;100976.02;107711;1260;22501;-51
2023/09/16 11:32:55;;;;;;;;;;;;;;;27.30;30.77;100973.80;108501;1275;22999;-50
2023/09/16 11:35:23;;;;;;;;;;;;;;;26.88;30.63;100975.85;107423;1275;23331;-51
2023/09/16 11:37:50;;;;;;;;;;;;;;;26.50;30.90;100974.91;107762;1263;22542;-51
2023/09/16 11:40:18;;;;;;;;;;;;;;;26.15;30.87;100974.31;107692;1274;24342;-51
2023/09/16 11:42:44;;;;;;;;;;;;;;;25.81;31.93;100967.94;107139;1266;25269;-50
2023/09/16 11:45:11;;;;;;;;;;;;;;;25.60;32.28;100965.27;107284;1267;22518;-42
2023/09/16 11:47:38;;;;;;;;;;;;;;;25.42;33.04;100963.50;107984;1266;24299;-43
2023/09/16 11:50:18;;;;;;;;;;;;;;;25.29;32.96;100960.58;107629;1267;22531;-51
2023/09/16 11:52:45;;;;;;;;;;;;;;;25.16;32.42;100961.24;107365;1268;25354;-42
2023/09/16 11:55:11;;;;;;;;;;;;;;;25.00;33.18;100966.51;107701;1274;22508;-51
2023/09/16 11:57:38;;;;;;;;;;;;;;;24.86;33.41;100962.90;107408;1264;22593;-42
2023/09/16 12:00:06;;;;;;;;;;;;;;;24.72;33.67;100962.12;106994;1269;22791;-42
2023/09/16 12:02:37;;;;;;;;;;;;;;;24.61;33.64;100964.10;107385;1276;25370;-43
2023/09/16 12:05:04;;;;;;;;;;;;;;;24.52;33.61;100960.98;107042;1263;22518;-51
2023/09/16 12:07:31;;;;;;;;;;;;;;;24.46;33.76;100961.43;107838;1254;22529;-51
2023/09/16 12:09:58;;;;;;;;;;;;;;;24.46;34.49;100962.86;107913;1275;22527;-42
2023/09/16 12:12:25;;;;;;;;;;;;;;;24.51;34.52;100959.75;107313;1264;22502;-53
2023/09/16 12:14:52;;;;;;;;;;;;;;;24.54;33.93;100965.70;107341;1264;22525;-43
2023/09/16 12:17:18;;;;;;;;;;;;;;;24.45;33.85;100962.38;107620;1260;22504;-42
2023/09/16 12:19:52;;;;;;;;;;;;;;;24.41;33.96;100963.98;107460;1267;26474;-53
2023/09/16 12:22:19;;;;;;;;;;;;;;;24.34;33.74;100963.91;107703;1275;22509;-41
2023/09/16 12:24:45;;;;;;;;;;;;;;;24.23;33.93;100967.45;107443;1264;22513;-43
2023/09/16 12:27:12;;;;;;;;;;;;;;;24.14;34.42;100967.50;107477;1264;22494;-53
2023/09/16 12:29:39;;;;;;;;;;;;;;;24.08;34.21;100968.85;107517;1265;22512;-51
2023/09/16 12:32:09;;;;;;;;;;;;;;;23.98;34.78;100964.88;107819;1268;22657;-52
2023/09/16 12:34:36;;;;;;;;;;;;;;;23.91;34.59;100963.95;107867;1274;24308;-43
2023/09/16 12:37:03;;;;;;;;;;;;;;;23.85;34.76;100960.82;107755;1263;22541;-42
2023/09/16 12:39:36;;;;;;;;;;;;;;;23.89;35.05;100956.90;107580;1264;22507;-44
2023/09/16 12:42:03;;;;;;;;;;;;;;;24.01;34.83;100959.90;107088;1263;22514;-42
2023/09/16 12:44:42;;;;;;;;;;;;;;;24.14;34.29;100958.60;107335;1273;22628;-41
2023/09/16 12:47:09;;;;;;;;;;;;;;;24.16;34.42;100954.41;107099;1263;22593;-41
2023/09/16 12:49:36;;;;;;;;;;;;;;;24.16;34.45;100951.36;107575;1264;22518;-51
2023/09/16 12:52:03;;;;;;;;;;;;;;;24.19;34.99;100952.49;107404;1264;22513;-52
2023/09/16 12:54:33;;;;;;;;;;;;;;;24.26;35.11;100948.08;107661;1255;22530;-51
2023/09/16 12:57:02;;;;;;;;;;;;;;;24.35;34.64;100946.05;107182;1264;22542;-52
2023/09/16 12:59:30;;;;;;;;;;;;;;;24.40;35.14;100940.30;107235;1261;26449;-42
2023/09/16 13:01:57;;;;;;;;;;;;;;;24.36;35.05;100941.37;107380;1260;22612;-42
2023/09/16 13:04:25;;;;;;;;;;;;;;;24.29;35.28;100938.13;108757;1260;22630;-42
2023/09/16 13:06:52;;;;;;;;;;;;;;;24.38;35.38;100941.29;107865;1260;22518;-41
2023/09/16 13:09:19;;;;;;;;;;;;;;;24.53;35.27;100936.66;109559;1274;22525;-51
2023/09/16 13:11:50;;;;;;;;;;;;;;;24.64;34.90;100934.69;107230;1267;23317;-42
2023/09/16 13:14:17;;;;;;;;;;;;;;;24.69;35.05;100936.80;107346;1275;26448;-44
2023/09/16 13:16:44;;;;;;;;;;;;;;;24.73;34.58;100938.92;107095;1267;25248;-44
2023/09/16 13:19:14;;;;;;;;;;;;;;;24.72;35.05;100935.75;107445;1275;23870;-42
2023/09/16 13:21:41;;;;;;;;;;;;;;;24.68;35.24;100935.58;107729;1264;22507;-43
2023/09/16 13:24:08;;;;;;;;;;;;;;;24.55;35.56;100936.03;107885;1267;22536;-43
2023/09/16 13:26:34;;;;;;;;;;;;;;;24.41;35.78;100935.83;107871;1256;22523;-51
2023/09/16 13:29:01;;;;;;;;;;;;;;;24.40;36.42;100936.05;107721;1269;22518;-42
2023/09/16 13:31:28;;;;;;;;;;;;;;;24.46;36.75;100940.23;107861;1273;22610;-42
2023/09/16 13:34:04;;;;;;;;;;;;;;;24.41;36.90;100941.17;107502;1265;22521;-42
2023/09/16 13:36:34;;;;;;;;;;;;;;;24.31;37.07;100939.66;108277;1261;23267;-43
2023/09/16 13:39:04;;;;;;;;;;;;;;;24.28;37.07;100944.05;107842;1263;22584;-50
2023/09/16 13:41:31;;;;;;;;;;;;;;;24.27;36.97;100940.19;107788;1273;22514;-51
2023/09/16 13:43:58;;;;;;;;;;;;;;;24.20;36.94;100941.91;107955;1263;24361;-51
2023/09/16 13:46:25;;;;;;;;;;;;;;;24.14;37.28;100950.92;107690;1264;22514;-44
2023/09/16 13:48:54;;;;;;;;;;;;;;;24.20;37.47;100948.52;107679;1263;22534;-41
2023/09/16 13:51:21;;;;;;;;;;;;;;;24.27;37.44;100940.69;107730;1254;22526;-44
2023/09/16 13:53:48;;;;;;;;;;;;;;;24.33;37.74;100944.71;107646;1270;22510;-41
2023/09/16 13:56:15;;;;;;;;;;;;;;;24.38;37.75;100945.20;107560;1264;22539;-42
2023/09/16 13:58:42;;;;;;;;;;;;;;;24.43;37.85;100942.69;107831;1261;24202;-42
2023/09/16 14:01:09;;;;;;;;;;;;;;;24.46;37.79;100944.87;107854;1274;22554;-52
2023/09/16 14:03:36;;;;;;;;;;;;;;;24.65;37.85;100940.38;107383;1267;22505;-42
2023/09/16 14:06:03;;;;;;;;;;;;;;;24.98;37.42;100938.60;108098;1265;22641;-41
2023/09/16 14:08:32;;;;;;;;;;;;;;;25.50;36.68;100938.60;107539;1267;22526;-43
2023/09/16 14:10:59;;;;;;;;;;;;;;;25.86;35.98;100942.30;107799;1263;22521;-43
2023/09/16 14:13:26;;;;;;;;;;;;;;;25.91;35.79;100943.09;107805;1267;25357;-51
2023/09/16 14:15:53;;;;;;;;;;;;;;;25.82;35.91;100944.32;107735;1275;25510;-42
2023/09/16 14:18:20;;;;;;;;;;;;;;;25.59;35.87;100945.64;107333;1266;22510;-44
2023/09/16 14:20:49;;;;;;;;;;;;;;;25.40;36.22;100941.27;107607;1267;22514;-41
2023/09/16 14:23:16;;;;;;;;;;;;;;;25.19;36.37;100940.24;107795;1267;23286;-42
